Mineral, Texas
Current Conditions -  °F | °C
As of 9:15 PM on Wednesday 22 Oct 2014 (Local Time) from KBEA Reporting Station
Clear Clear  
Wind Chill: 72°   Ceiling: Unl
Heat Index: 72°   Visibility: 10mi
Dew Point: 64°   Wind: 5mph
Humidity: 76%   Direction: 120°ESE
Pressure: 30.06"   Gusts: NA
Location:  28.55°N, 97.9°W
Report Text: KBEA 230215Z AUTO 12004KT 10SM CLR 22/18 A3006 RMK AO2 T02200176
Loading
Personal Weather Stations






























Interactive Weather Map
Tropical Storm Tracking
New forecast layout! Learn more

10-Day Weather Forecast

Advertisements
Track Severe Weather on mobile